Etusivu
METAR-TAF:

METAR-TAF

Lentoasemat :

Tomahawk Regional Airport

Tomahawk, Wisconsin, Yhdysvallat

Leveyspiiri: 45-28-08N, Pituuspiiri: 089-48-20W, korkeus merenpinnasta: 453 m

Tämänhetkinen sää

Tämä raportti tehtiin 22 minuuttia sitten, kello 14.35 UTC
Tuuli 9 kn lännestä
Lämpötila 22°C
Kosteus 57%
Ilmanpaine 1011 hPa
Näkyvyys: 16.1 km
selkeää

METAR: KTKV 031435Z AUTO 26009KT 10SM CLR 22/13 A2984 RMK AO2 T02210126 PWINO

Aika: 09:57 (14:57 UTC)


TAF: puuttuu

Säähavainnot ja -ennusteet yli 4000 lentoasemalta (METAR- ja TAF-raportit).

Käytössä olevat sääasemat on merkitty karttaan keltaisilla ja punaisilla pisteillä.

Aseta hiiri pisteen päälle nähdäksesi sääaseman nimen.

Klikkaa sitten nähdäksesi säähavainnot ja -ennusteet.

Kartan vaihtaminen: klikkaa mustalla rastilla varustettuja vihreitä pisteitä, niin voit zoomata sisään; viivalla varustettua vihreää pistettä, niin voit zoomata ulos tai vihreitä nuolia, niin pääset viereisille kartoille.


METAR-TAF: